sensor_id;sensor_type;location;lat;lon;timestamp;pressure;altitude;pressure_sealevel;temperature;humidity
5679;BME280;2862;52.560;13.566;2023-06-26T00:05:00;100747.94;;;21.45;88.57
5679;BME280;2862;52.560;13.566;2023-06-26T00:15:06;100752.31;;;21.46;88.94
5679;BME280;2862;52.560;13.566;2023-06-26T00:25:09;100749.34;;;21.41;90.52
5679;BME280;2862;52.560;13.566;2023-06-26T00:35:14;100741.47;;;21.53;89.19
5679;BME280;2862;52.560;13.566;2023-06-26T00:45:19;100734.75;;;21.48;88.62
5679;BME280;2862;52.560;13.566;2023-06-26T00:55:29;100729.81;;;21.31;90.16
5679;BME280;2862;52.560;13.566;2023-06-26T01:05:32;100722.94;;;21.35;89.90
5679;BME280;2862;52.560;13.566;2023-06-26T01:15:36;100712.78;;;21.22;91.24
5679;BME280;2862;52.560;13.566;2023-06-26T01:25:52;100714.22;;;21.18;91.73
5679;BME280;2862;52.560;13.566;2023-06-26T01:36:00;100703.03;;;21.06;91.53
5679;BME280;2862;52.560;13.566;2023-06-26T01:46:06;100694.22;;;21.04;92.11
5679;BME280;2862;52.560;13.566;2023-06-26T01:56:16;100693.31;;;20.97;92.70
5679;BME280;2862;52.560;13.566;2023-06-26T02:06:20;100689.78;;;20.75;93.89
5679;BME280;2862;52.560;13.566;2023-06-26T02:16:26;100678.34;;;20.58;94.47
5679;BME280;2862;52.560;13.566;2023-06-26T02:26:29;100677.69;;;20.56;94.49
5679;BME280;2862;52.560;13.566;2023-06-26T02:36:34;100682.63;;;20.67;94.58
5679;BME280;2862;52.560;13.566;2023-06-26T02:46:39;100682.56;;;20.61;93.93
5679;BME280;2862;52.560;13.566;2023-06-26T02:56:44;100673.78;;;20.59;94.99
5679;BME280;2862;52.560;13.566;2023-06-26T03:06:49;100665.31;;;20.75;94.22
5679;BME280;2862;52.560;13.566;2023-06-26T03:16:54;100653.50;;;20.83;94.10
5679;BME280;2862;52.560;13.566;2023-06-26T03:27:00;100646.22;;;20.90;93.77
5679;BME280;2862;52.560;13.566;2023-06-26T03:37:06;100644.84;;;21.01;92.67
5679;BME280;2862;52.560;13.566;2023-06-26T03:47:09;100647.28;;;21.99;86.86
5679;BME280;2862;52.560;13.566;2023-06-26T03:57:14;100645.72;;;21.77;87.32
5679;BME280;2862;52.560;13.566;2023-06-26T04:07:17;100642.03;;;21.91;85.85
5679;BME280;2862;52.560;13.566;2023-06-26T04:17:22;100634.44;;;24.30;74.41
5679;BME280;2862;52.560;13.566;2023-06-26T04:27:25;100623.75;;;29.21;52.01
5679;BME280;2862;52.560;13.566;2023-06-26T04:37:29;100627.41;;;26.56;60.70
5679;BME280;2862;52.560;13.566;2023-06-26T04:47:32;100616.97;;;28.44;53.92
5679;BME280;2862;52.560;13.566;2023-06-26T04:57:36;100612.09;;;33.66;39.07
5679;BME280;2862;52.560;13.566;2023-06-26T05:07:41;100605.00;;;36.02;33.84
5679;BME280;2862;52.560;13.566;2023-06-26T05:17:46;100605.09;;;37.28;31.43
5679;BME280;2862;52.560;13.566;2023-06-26T05:27:49;100611.44;;;32.43;40.70
5679;BME280;2862;52.560;13.566;2023-06-26T05:37:54;100594.34;;;29.92;47.02
5679;BME280;2862;52.560;13.566;2023-06-26T05:47:58;100581.16;;;29.50;46.16
5679;BME280;2862;52.560;13.566;2023-06-26T05:58:07;100565.16;;;36.72;31.33
5679;BME280;2862;52.560;13.566;2023-06-26T06:08:12;100560.09;;;40.45;25.23
5679;BME280;2862;52.560;13.566;2023-06-26T06:18:16;100555.69;;;41.38;23.91
5679;BME280;2862;52.560;13.566;2023-06-26T06:28:19;100556.94;;;41.49;22.50
5679;BME280;2862;52.560;13.566;2023-06-26T06:38:23;100556.53;;;42.88;22.10
5679;BME280;2862;52.560;13.566;2023-06-26T06:48:27;100562.75;;;42.82;21.38
5679;BME280;2862;52.560;13.566;2023-06-26T06:58:31;100546.47;;;42.75;21.54
5679;BME280;2862;52.560;13.566;2023-06-26T07:08:35;100548.91;;;42.89;20.84
5679;BME280;2862;52.560;13.566;2023-06-26T07:18:40;100540.56;;;41.22;23.68
5679;BME280;2862;52.560;13.566;2023-06-26T07:28:43;100528.78;;;41.28;23.64
5679;BME280;2862;52.560;13.566;2023-06-26T07:38:47;100525.50;;;40.50;24.57
5679;BME280;2862;52.560;13.566;2023-06-26T07:48:51;100514.53;;;38.87;24.76
5679;BME280;2862;52.560;13.566;2023-06-26T07:58:55;100512.75;;;38.91;24.76
5679;BME280;2862;52.560;13.566;2023-06-26T08:08:59;100506.81;;;36.29;28.69
5679;BME280;2862;52.560;13.566;2023-06-26T08:19:03;100506.69;;;34.73;29.29
5679;BME280;2862;52.560;13.566;2023-06-26T08:29:06;100500.50;;;33.84;31.43
5679;BME280;2862;52.560;13.566;2023-06-26T08:39:13;100490.97;;;32.76;31.78
5679;BME280;2862;52.560;13.566;2023-06-26T08:49:20;100476.84;;;32.72;33.77
5679;BME280;2862;52.560;13.566;2023-06-26T08:59:26;100476.91;;;32.47;33.13
5679;BME280;2862;52.560;13.566;2023-06-26T09:09:29;100462.78;;;32.48;34.43
5679;BME280;2862;52.560;13.566;2023-06-26T09:19:36;100448.97;;;32.03;33.40
5679;BME280;2862;52.560;13.566;2023-06-26T09:29:40;100450.63;;;31.98;33.28
5679;BME280;2862;52.560;13.566;2023-06-26T09:39:47;100430.19;;;31.94;34.20
5679;BME280;2862;52.560;13.566;2023-06-26T09:49:52;100430.41;;;31.62;32.53
5679;BME280;2862;52.560;13.566;2023-06-26T09:59:58;100427.34;;;31.64;32.16
5679;BME280;2862;52.560;13.566;2023-06-26T10:10:04;100405.00;;;31.86;32.90
5679;BME280;2862;52.560;13.566;2023-06-26T10:20:13;100401.03;;;31.26;33.51
5679;BME280;2862;52.560;13.566;2023-06-26T10:30:19;100386.72;;;31.49;33.36
5679;BME280;2862;52.560;13.566;2023-06-26T10:40:27;100372.53;;;31.15;33.07
5679;BME280;2862;52.560;13.566;2023-06-26T10:50:30;100357.41;;;31.43;33.78
5679;BME280;2862;52.560;13.566;2023-06-26T11:00:35;100356.59;;;31.37;34.39
5679;BME280;2862;52.560;13.566;2023-06-26T11:10:48;100344.94;;;31.25;33.97
5679;BME280;2862;52.560;13.566;2023-06-26T11:20:53;100335.28;;;31.28;33.84
5679;BME280;2862;52.560;13.566;2023-06-26T11:30:56;100322.56;;;31.42;35.98
5679;BME280;2862;52.560;13.566;2023-06-26T11:41:00;100306.72;;;30.97;34.28
5679;BME280;2862;52.560;13.566;2023-06-26T11:51:05;100289.41;;;31.47;35.39
5679;BME280;2862;52.560;13.566;2023-06-26T12:01:09;100276.69;;;31.41;33.86
5679;BME280;2862;52.560;13.566;2023-06-26T12:11:13;100261.75;;;31.06;34.46
5679;BME280;2862;52.560;13.566;2023-06-26T12:21:45;100243.53;;;31.46;34.14
5679;BME280;2862;52.560;13.566;2023-06-26T12:31:50;100232.25;;;31.32;33.46
5679;BME280;2862;52.560;13.566;2023-06-26T12:41:56;100224.78;;;31.38;32.45
5679;BME280;2862;52.560;13.566;2023-06-26T12:52:02;100210.59;;;31.75;33.21
5679;BME280;2862;52.560;13.566;2023-06-26T13:02:07;100194.78;;;32.01;33.41
5679;BME280;2862;52.560;13.566;2023-06-26T13:12:11;100184.41;;;31.37;33.61
5679;BME280;2862;52.560;13.566;2023-06-26T13:22:16;100147.41;;;31.33;33.83
5679;BME280;2862;52.560;13.566;2023-06-26T13:32:20;100132.22;;;31.25;34.23
5679;BME280;2862;52.560;13.566;2023-06-26T13:42:24;100116.47;;;31.05;34.75
5679;BME280;2862;52.560;13.566;2023-06-26T13:52:27;100090.00;;;30.84;36.51
5679;BME280;2862;52.560;13.566;2023-06-26T14:02:31;100074.25;;;30.84;35.54
5679;BME280;2862;52.560;13.566;2023-06-26T14:12:34;100060.72;;;30.83;36.77
5679;BME280;2862;52.560;13.566;2023-06-26T14:22:39;100053.56;;;30.46;36.76
5679;BME280;2862;52.560;13.566;2023-06-26T14:32:42;100107.84;;;30.15;38.21
5679;BME280;2862;52.560;13.566;2023-06-26T14:42:46;100327.25;;;25.05;79.01
5679;BME280;2862;52.560;13.566;2023-06-26T14:52:49;100348.22;;;22.74;90.90
5679;BME280;2862;52.560;13.566;2023-06-26T15:02:53;100371.72;;;23.20;95.04
5679;BME280;2862;52.560;13.566;2023-06-26T15:12:58;100389.28;;;23.69;94.43
5679;BME280;2862;52.560;13.566;2023-06-26T15:23:03;100357.91;;;23.47;95.59
5679;BME280;2862;52.560;13.566;2023-06-26T15:33:06;100362.53;;;23.46;92.71
5679;BME280;2862;52.560;13.566;2023-06-26T15:43:10;100374.56;;;23.00;92.95
5679;BME280;2862;52.560;13.566;2023-06-26T15:53:16;100367.28;;;23.26;92.87
5679;BME280;2862;52.560;13.566;2023-06-26T16:03:20;100353.81;;;23.88;92.58
5679;BME280;2862;52.560;13.566;2023-06-26T16:13:24;100373.88;;;24.00;88.76
5679;BME280;2862;52.560;13.566;2023-06-26T16:23:28;100371.06;;;24.06;91.04
5679;BME280;2862;52.560;13.566;2023-06-26T16:33:31;100387.19;;;24.40;89.80
5679;BME280;2862;52.560;13.566;2023-06-26T16:43:36;100379.75;;;24.22;90.48
5679;BME280;2862;52.560;13.566;2023-06-26T16:53:39;100378.41;;;23.88;89.97
5679;BME280;2862;52.560;13.566;2023-06-26T17:03:43;100389.28;;;23.63;90.67
5679;BME280;2862;52.560;13.566;2023-06-26T17:13:46;100386.84;;;23.16;92.97
5679;BME280;2862;52.560;13.566;2023-06-26T17:23:51;100396.88;;;22.77;92.02
5679;BME280;2862;52.560;13.566;2023-06-26T17:33:54;100404.75;;;22.99;91.96
5679;BME280;2862;52.560;13.566;2023-06-26T17:43:58;100407.13;;;23.27;90.22
5679;BME280;2862;52.560;13.566;2023-06-26T17:54:01;100432.19;;;23.17;90.43
5679;BME280;2862;52.560;13.566;2023-06-26T18:04:07;100444.97;;;23.23;91.88
5679;BME280;2862;52.560;13.566;2023-06-26T18:14:10;100462.34;;;23.22;91.05
5679;BME280;2862;52.560;13.566;2023-06-26T18:24:14;100463.09;;;22.98;91.64
5679;BME280;2862;52.560;13.566;2023-06-26T18:34:17;100469.94;;;23.20;92.61
5679;BME280;2862;52.560;13.566;2023-06-26T18:44:21;100465.59;;;22.99;93.06
5679;BME280;2862;52.560;13.566;2023-06-26T18:54:25;100468.75;;;23.03;93.66
5679;BME280;2862;52.560;13.566;2023-06-26T19:04:30;100476.06;;;23.09;94.09
5679;BME280;2862;52.560;13.566;2023-06-26T19:14:32;100474.84;;;22.92;94.09
5679;BME280;2862;52.560;13.566;2023-06-26T19:24:37;100482.00;;;22.79;94.28
5679;BME280;2862;52.560;13.566;2023-06-26T19:34:40;100498.81;;;22.63;93.46
5679;BME280;2862;52.560;13.566;2023-06-26T19:44:44;100503.84;;;22.46;92.54
5679;BME280;2862;52.560;13.566;2023-06-26T19:54:47;100511.81;;;22.35;88.65
5679;BME280;2862;52.560;13.566;2023-06-26T20:04:51;100509.06;;;22.08;82.71
5679;BME280;2862;52.560;13.566;2023-06-26T20:14:54;100523.09;;;21.85;81.15
5679;BME280;2862;52.560;13.566;2023-06-26T20:25:01;100533.31;;;21.83;81.97
5679;BME280;2862;52.560;13.566;2023-06-26T20:35:08;100515.28;;;21.62;79.93
5679;BME280;2862;52.560;13.566;2023-06-26T20:45:14;100513.53;;;21.48;80.63
5679;BME280;2862;52.560;13.566;2023-06-26T20:55:21;100523.03;;;21.24;76.83
5679;BME280;2862;52.560;13.566;2023-06-26T21:05:28;100532.41;;;21.15;76.31
5679;BME280;2862;52.560;13.566;2023-06-26T21:15:31;100538.78;;;20.94;71.71
5679;BME280;2862;52.560;13.566;2023-06-26T21:25:36;100555.66;;;20.83;73.25
5679;BME280;2862;52.560;13.566;2023-06-26T21:35:39;100555.53;;;20.69;70.85
5679;BME280;2862;52.560;13.566;2023-06-26T21:45:48;100556.25;;;20.50;66.13
5679;BME280;2862;52.560;13.566;2023-06-26T21:55:51;100570.88;;;20.49;69.62
5679;BME280;2862;52.560;13.566;2023-06-26T22:05:55;100565.34;;;20.42;69.22
5679;BME280;2862;52.560;13.566;2023-06-26T22:15:58;100566.41;;;20.20;65.09
5679;BME280;2862;52.560;13.566;2023-06-26T22:26:02;100570.19;;;20.04;65.97
5679;BME280;2862;52.560;13.566;2023-06-26T22:36:06;100581.25;;;20.03;66.62
5679;BME280;2862;52.560;13.566;2023-06-26T22:46:10;100586.34;;;19.91;67.30
5679;BME280;2862;52.560;13.566;2023-06-26T22:56:13;100580.84;;;19.84;67.53
5679;BME280;2862;52.560;13.566;2023-06-26T23:06:17;100582.84;;;19.61;69.81
5679;BME280;2862;52.560;13.566;2023-06-26T23:16:23;100576.03;;;19.50;70.19
5679;BME280;2862;52.560;13.566;2023-06-26T23:26:28;100587.16;;;19.41;71.14
5679;BME280;2862;52.560;13.566;2023-06-26T23:36:32;100604.09;;;19.28;73.84
5679;BME280;2862;52.560;13.566;2023-06-26T23:46:40;100611.88;;;19.16;73.30
5679;BME280;2862;52.560;13.566;2023-06-26T23:56:44;100621.66;;;19.02;72.54
